Weather at Częstochowa-Rudniki

Public forecast

Using degrees Celsius for public forecast. Weather courtesy of forecast.io.

Closest aviation weather report (METAR) to Częstochowa-Rudniki

Closest report is Katowice International Airport, 25.1 nm (46.5 km) S. Retrieved 2021/06/15 14:30 UTC (30 minutes ago):

EPKT 151430Z 09005KT 060V120 CAVOK 24/06 Q1018

Closest aviation forecast (TAF) to Częstochowa-Rudniki

Closest forecast is Katowice International Airport, 25.1 nm (46.5 km) S. Retrieved 2021/06/15 12:33 UTC (2 hours ago):

TAF EPKT 151130Z 1512/1612 VRB02KT CAVOK